createdAt,value
2023-02-03T00:00:16.727Z,102023.22
2023-02-03T00:00:38.449Z,102023.22
2023-02-03T00:01:00.141Z,102023.19
2023-02-03T00:01:22.920Z,102023.13
2023-02-03T00:01:44.628Z,102020.44
2023-02-03T00:02:07.237Z,102027.53
2023-02-03T00:02:28.898Z,102021.31
2023-02-03T00:02:50.767Z,102012.47
2023-02-03T00:03:12.491Z,102020.44
2023-02-03T00:03:35.069Z,102023.91
2023-02-03T00:03:56.737Z,102015.94
2023-02-03T00:04:18.384Z,102017.72
2023-02-03T00:04:41.092Z,102002.72
2023-02-03T00:05:03.131Z,102002.63
2023-02-03T00:05:25.087Z,102007.06
2023-02-03T00:05:47.080Z,102013.38
2023-02-03T00:06:10.041Z,102011.81
2023-02-03T00:06:32.620Z,102008.22
2023-02-03T00:06:54.461Z,102012.63
2023-02-03T00:07:16.238Z,102006.56
2023-02-03T00:07:40.656Z,102010.13
2023-02-03T00:08:04.053Z,102007.47
2023-02-03T00:08:25.700Z,101994.31
2023-02-03T00:08:47.502Z,102005.00
2023-02-03T00:09:09.299Z,102009.38
2023-02-03T00:09:33.272Z,102001.31
2023-02-03T00:09:56.021Z,101998.66
2023-02-03T00:10:21.267Z,102003.94
2023-02-03T00:10:43.049Z,101997.75
2023-02-03T00:11:06.308Z,101993.34
2023-02-03T00:11:31.338Z,102004.00
2023-02-03T00:11:53.854Z,101993.34
2023-02-03T00:12:15.563Z,101999.56
2023-02-03T00:12:38.133Z,101993.34
2023-02-03T00:12:59.862Z,102000.56
2023-02-03T00:13:22.143Z,101994.41
2023-02-03T00:13:43.757Z,101985.53
2023-02-03T00:14:07.923Z,101993.50
2023-02-03T00:14:29.626Z,101990.84
2023-02-03T00:14:51.229Z,101994.41
2023-02-03T00:15:12.832Z,101985.84
2023-02-03T00:15:35.413Z,101984.88
2023-02-03T00:15:57.143Z,101984.81
2023-02-03T00:16:18.899Z,101994.50
2023-02-03T00:16:40.573Z,101966.28
2023-02-03T00:17:03.250Z,101983.06
2023-02-03T00:17:24.932Z,101983.91
2023-02-03T00:17:47.429Z,101977.66
2023-02-03T00:18:09.087Z,101986.44
2023-02-03T00:18:31.309Z,101989.09
2023-02-03T00:18:54.043Z,101988.13
2023-02-03T00:19:17.504Z,101971.41
2023-02-03T00:19:39.348Z,101984.56
2023-02-03T00:20:00.974Z,101975.72
2023-02-03T00:20:23.781Z,101980.97
2023-02-03T00:20:45.617Z,101978.25
2023-02-03T00:21:07.658Z,101975.63
2023-02-03T00:21:29.303Z,101979.16
2023-02-03T00:21:50.850Z,101976.53
2023-02-03T00:22:13.529Z,101975.63
2023-02-03T00:22:35.177Z,101978.47
2023-02-03T00:23:03.748Z,101975.78
2023-02-03T00:23:25.934Z,101978.44
2023-02-03T00:23:48.548Z,101977.47
2023-02-03T00:24:10.264Z,101980.94
2023-02-03T00:24:33.240Z,101977.38
2023-02-03T00:24:54.875Z,101980.06
2023-02-03T00:25:16.782Z,101977.41
2023-02-03T00:25:40.112Z,101978.22
2023-02-03T00:26:07.672Z,101984.41
2023-02-03T00:26:29.612Z,101974.72
2023-02-03T00:26:51.361Z,101977.47
2023-02-03T00:27:14.270Z,101981.03
2023-02-03T00:27:36.070Z,101970.38
2023-02-03T00:27:57.958Z,101971.41
2023-02-03T00:28:19.613Z,101975.84
2023-02-03T00:28:42.258Z,101969.72
2023-02-03T00:29:03.941Z,101973.13
2023-02-03T00:29:26.062Z,101976.69
2023-02-03T00:29:48.064Z,101979.56
2023-02-03T00:30:12.073Z,101964.56
2023-02-03T00:30:34.718Z,101964.44
2023-02-03T00:30:56.382Z,101965.22
2023-02-03T00:31:20.264Z,101965.44
2023-02-03T00:31:42.035Z,101963.63
2023-02-03T00:32:05.213Z,101960.94
2023-02-03T00:32:27.170Z,101953.84
2023-02-03T00:32:48.926Z,101956.44
2023-02-03T00:33:10.634Z,101953.72
2023-02-03T00:33:33.738Z,101951.03
2023-02-03T00:33:58.654Z,101953.69
2023-02-03T00:34:20.555Z,101958.91
2023-02-03T00:34:42.145Z,101956.19
2023-02-03T00:35:05.204Z,101950.91
2023-02-03T00:35:26.823Z,101958.03
2023-02-03T00:35:49.667Z,101947.31
2023-02-03T00:36:12.402Z,101964.97
2023-02-03T00:36:34.061Z,101952.56
2023-02-03T00:36:56.960Z,101953.50
2023-02-03T00:37:18.573Z,101958.69
2023-02-03T00:37:40.906Z,101966.75
2023-02-03T00:38:02.483Z,101952.78
2023-02-03T00:38:28.618Z,101953.63
2023-02-03T00:38:50.374Z,101957.13
2023-02-03T00:39:12.137Z,101959.75
2023-02-03T00:39:37.250Z,101949.06
2023-02-03T00:39:58.945Z,101959.66
2023-02-03T00:40:20.964Z,101963.28
2023-02-03T00:40:42.559Z,101955.75
2023-02-03T00:41:05.230Z,101954.00
2023-02-03T00:41:29.717Z,101951.38
2023-02-03T00:41:51.379Z,101954.81
2023-02-03T00:42:12.996Z,101960.06
2023-02-03T00:42:34.919Z,101954.66
2023-02-03T00:42:57.546Z,101952.78
2023-02-03T00:43:19.252Z,101947.47
2023-02-03T00:43:40.906Z,101956.28
2023-02-03T00:44:02.803Z,101959.28
2023-02-03T00:44:25.454Z,101954.97
2023-02-03T00:44:47.097Z,101945.97
2023-02-03T00:45:09.356Z,101958.44
2023-02-03T00:45:30.992Z,101946.91
2023-02-03T00:45:53.634Z,101946.84
2023-02-03T00:46:16.060Z,101941.50
2023-02-03T00:46:38.120Z,101957.34
2023-02-03T00:46:59.727Z,101951.94
2023-02-03T00:47:22.347Z,101958.06
2023-02-03T00:47:45.551Z,101954.59
2023-02-03T00:48:10.403Z,101960.69
2023-02-03T00:48:33.097Z,101957.91
2023-02-03T00:48:55.998Z,101956.13
2023-02-03T00:49:23.023Z,101962.47
2023-02-03T00:49:47.725Z,101957.47
2023-02-03T00:50:11.039Z,101955.06
2023-02-03T00:50:36.639Z,101955.03
2023-02-03T00:50:59.596Z,101957.63
2023-02-03T00:51:21.545Z,101954.88
2023-02-03T00:51:43.760Z,101956.53
2023-02-03T00:52:06.011Z,101954.69
2023-02-03T00:52:30.664Z,101952.81
2023-02-03T00:52:52.826Z,101952.72
2023-02-03T00:53:17.202Z,101947.31
2023-02-03T00:53:41.265Z,101947.31
2023-02-03T00:54:05.536Z,101953.44
2023-02-03T00:54:32.616Z,101947.16
2023-02-03T00:54:56.473Z,101954.31
2023-02-03T00:55:19.061Z,101943.66
2023-02-03T00:55:44.600Z,101944.66
2023-02-03T00:56:13.547Z,101944.59
2023-02-03T00:56:35.282Z,101934.81
2023-02-03T00:56:57.168Z,101935.81
2023-02-03T00:57:20.120Z,101938.59
2023-02-03T00:57:41.812Z,101938.66
2023-02-03T00:58:03.528Z,101948.38
2023-02-03T00:58:27.230Z,101938.69
2023-02-03T00:58:50.964Z,101948.44
2023-02-03T00:59:15.060Z,101951.28
2023-02-03T00:59:37.385Z,101945.16
2023-02-03T00:59:59.666Z,101951.69
2023-02-03T01:00:22.564Z,101941.88
2023-02-03T01:00:46.825Z,101943.53
2023-02-03T01:01:10.354Z,101947.81
2023-02-03T01:01:33.091Z,101946.19
2023-02-03T01:01:55.097Z,101946.91
2023-02-03T01:02:17.071Z,101956.56
2023-02-03T01:02:38.796Z,101948.47
2023-02-03T01:03:01.343Z,101951.94
2023-02-03T01:03:25.103Z,101947.47
2023-02-03T01:03:48.201Z,101956.25
2023-02-03T01:04:11.039Z,101946.50
2023-02-03T01:04:32.744Z,101949.34
2023-02-03T01:04:55.323Z,101954.56
2023-02-03T01:05:16.995Z,101963.38
2023-02-03T01:05:38.749Z,101956.19
2023-02-03T01:06:09.008Z,101955.22
2023-02-03T01:06:31.856Z,101956.88
2023-02-03T01:06:57.374Z,101957.78
2023-02-03T01:07:19.163Z,101944.50
2023-02-03T01:07:40.816Z,101959.50
2023-02-03T01:08:02.773Z,101942.63
2023-02-03T01:08:25.402Z,101947.97
2023-02-03T01:08:48.051Z,101941.84
2023-02-03T01:09:09.720Z,101944.47
2023-02-03T01:09:33.908Z,101939.06
2023-02-03T01:09:56.855Z,101941.63
2023-02-03T01:10:19.587Z,101945.47
2023-02-03T01:10:41.538Z,101938.88
2023-02-03T01:11:07.060Z,101942.56
2023-02-03T01:11:28.800Z,101942.41
2023-02-03T01:11:51.469Z,101936.13
2023-02-03T01:12:13.101Z,101936.84
2023-02-03T01:12:35.674Z,101938.63
2023-02-03T01:12:57.404Z,101944.81
2023-02-03T01:13:19.938Z,101949.19
2023-02-03T01:13:41.582Z,101948.28
2023-02-03T01:14:03.295Z,101952.72
2023-02-03T01:14:24.929Z,101944.72
2023-02-03T01:14:47.594Z,101946.44
2023-02-03T01:15:11.028Z,101947.22
2023-02-03T01:15:32.913Z,101941.00
2023-02-03T01:15:54.544Z,101946.25
2023-02-03T01:16:19.024Z,101936.53
2023-02-03T01:16:41.068Z,101943.53
2023-02-03T01:17:03.245Z,101944.41
2023-02-03T01:17:25.393Z,101947.91
2023-02-03T01:17:48.542Z,101945.28
2023-02-03T01:18:10.137Z,101947.97
2023-02-03T01:18:32.073Z,101953.28
2023-02-03T01:19:08.231Z,101950.63
2023-02-03T01:19:31.317Z,101955.94
2023-02-03T01:19:53.792Z,101955.94
2023-02-03T01:20:17.049Z,101959.63
2023-02-03T01:20:39.016Z,101958.06
2023-02-03T01:21:05.713Z,101957.13
2023-02-03T01:21:29.428Z,101955.31
2023-02-03T01:21:51.315Z,101962.34
2023-02-03T01:22:13.192Z,101963.28
2023-02-03T01:22:34.884Z,101954.56
2023-02-03T01:22:57.825Z,101956.50
2023-02-03T01:23:19.944Z,101963.44
2023-02-03T01:23:42.609Z,101963.44
2023-02-03T01:24:06.721Z,101968.63
2023-02-03T01:24:29.601Z,101958.75
2023-02-03T01:24:51.335Z,101956.97
2023-02-03T01:25:14.487Z,101939.50
2023-02-03T01:25:36.359Z,101961.41
2023-02-03T01:26:03.842Z,101971.91
2023-02-03T01:26:25.862Z,101970.09
2023-02-03T01:26:47.554Z,101978.22
2023-02-03T01:27:11.209Z,101961.63
2023-02-03T01:27:33.333Z,101948.59
2023-02-03T01:27:55.061Z,101952.97
2023-02-03T01:28:18.889Z,101975.91
2023-02-03T01:28:42.382Z,101982.97
2023-02-03T01:29:04.315Z,101980.19
2023-02-03T01:29:26.394Z,101984.63
2023-02-03T01:29:48.945Z,101984.50
2023-02-03T01:30:12.990Z,101988.81
2023-02-03T01:30:35.017Z,101995.94
2023-02-03T01:30:58.870Z,101988.09
2023-02-03T01:31:23.121Z,101988.91
2023-02-03T01:31:45.016Z,101995.03
2023-02-03T01:32:08.891Z,101989.63
2023-02-03T01:32:30.758Z,101997.53
2023-02-03T01:32:52.697Z,101989.53
2023-02-03T01:33:14.630Z,101992.06
2023-02-03T01:33:36.581Z,101953.38
2023-02-03T01:33:59.730Z,102003.53
2023-02-03T01:34:21.487Z,101963.03
2023-02-03T01:34:43.377Z,101995.50
2023-02-03T01:35:05.492Z,101961.25
2023-02-03T01:35:27.392Z,102004.47
2023-02-03T01:35:50.361Z,101980.69
2023-02-03T01:36:13.327Z,101994.63
2023-02-03T01:36:35.777Z,101995.53
2023-02-03T01:36:57.522Z,101990.34
2023-02-03T01:37:20.159Z,101995.50
2023-02-03T01:37:42.591Z,101984.88
2023-02-03T01:38:05.657Z,101995.50
2023-02-03T01:38:27.446Z,101994.53
2023-02-03T01:38:49.718Z,101995.44
2023-02-03T01:39:12.431Z,101977.88
2023-02-03T01:39:34.163Z,101957.69
2023-02-03T01:39:55.849Z,101990.34
2023-02-03T01:40:19.587Z,101980.72
2023-02-03T01:40:45.784Z,101994.03
2023-02-03T01:41:12.515Z,101984.25
2023-02-03T01:41:37.005Z,101989.47
2023-02-03T01:41:58.897Z,101990.28
2023-02-03T01:42:21.701Z,101989.38
2023-02-03T01:42:43.313Z,101975.28
2023-02-03T01:43:05.038Z,101986.66
2023-02-03T01:43:31.388Z,101991.16
2023-02-03T01:43:58.300Z,101990.44
2023-02-03T01:44:39.663Z,101974.41
2023-02-03T01:45:01.448Z,101986.72
2023-02-03T01:45:24.322Z,101990.22
2023-02-03T01:45:46.506Z,101992.03
2023-02-03T01:46:22.191Z,101991.16
2023-02-03T01:46:48.717Z,101953.28
2023-02-03T01:47:23.414Z,101981.38
2023-02-03T01:47:48.439Z,101919.81
2023-02-03T01:48:10.245Z,101980.56
2023-02-03T01:48:34.925Z,101990.34
2023-02-03T01:49:04.783Z,101999.16
2023-02-03T01:49:31.975Z,101991.97
2023-02-03T01:50:00.281Z,101990.19
2023-02-03T01:50:26.772Z,101991.97
2023-02-03T01:50:48.745Z,101991.22
2023-02-03T01:51:10.799Z,101993.91
2023-02-03T01:51:32.820Z,101989.38
2023-02-03T01:51:55.113Z,102009.72
2023-02-03T01:52:18.625Z,101963.03
2023-02-03T01:52:42.275Z,101949.78
2023-02-03T01:53:07.112Z,101955.84
2023-02-03T01:53:30.560Z,101962.00
2023-02-03T01:53:54.294Z,101994.47
2023-02-03T01:54:21.520Z,102005.34
2023-02-03T01:54:47.753Z,101974.56
2023-02-03T01:55:12.922Z,101948.09
2023-02-03T01:55:41.901Z,101928.78
2023-02-03T01:56:04.935Z,102007.03
2023-02-03T01:56:30.536Z,101998.09
2023-02-03T01:57:03.028Z,101994.53
2023-02-03T01:57:30.612Z,102000.72
2023-02-03T01:57:56.876Z,102003.31
2023-02-03T01:58:24.642Z,101997.13
2023-02-03T01:58:48.681Z,102001.56
2023-02-03T01:59:12.946Z,101967.28
2023-02-03T01:59:36.498Z,101970.78
2023-02-03T02:00:00.483Z,101961.06
2023-02-03T02:00:23.936Z,101949.53
2023-02-03T02:00:49.769Z,102000.56
2023-02-03T02:01:11.692Z,101996.13
2023-02-03T02:01:34.646Z,101966.25
2023-02-03T02:01:57.520Z,101986.44
2023-02-03T02:02:20.608Z,101960.13
2023-02-03T02:02:46.187Z,102005.03
2023-02-03T02:03:09.129Z,101962.84
2023-02-03T02:03:34.814Z,101966.31
2023-02-03T02:04:01.915Z,101999.66
2023-02-03T02:04:29.085Z,101991.78
2023-02-03T02:04:57.178Z,102001.38
2023-02-03T02:05:25.631Z,101992.56
2023-02-03T02:05:51.899Z,101998.06
2023-02-03T02:06:14.636Z,101984.66
2023-02-03T02:06:36.466Z,101998.00
2023-02-03T02:06:59.296Z,101994.53
2023-02-03T02:07:21.123Z,101961.22
2023-02-03T02:07:45.092Z,101991.84
2023-02-03T02:08:09.622Z,101995.50
2023-02-03T02:08:31.609Z,101960.38
2023-02-03T02:08:54.689Z,101980.50
2023-02-03T02:09:16.614Z,101997.19
2023-02-03T02:09:39.890Z,101986.56
2023-02-03T02:10:02.272Z,101983.00
2023-02-03T02:10:24.642Z,101976.78
2023-02-03T02:10:48.802Z,101984.78
2023-02-03T02:11:12.787Z,101989.22
2023-02-03T02:11:36.279Z,101982.09
2023-02-03T02:11:57.997Z,101979.38
2023-02-03T02:12:19.806Z,101976.69
2023-02-03T02:12:42.584Z,101973.97
2023-02-03T02:13:06.212Z,101989.94
2023-02-03T02:13:30.469Z,101973.97
2023-02-03T02:13:56.124Z,101977.63
2023-02-03T02:14:19.371Z,101971.56
2023-02-03T02:14:44.083Z,101978.56
2023-02-03T02:15:07.028Z,101968.72
2023-02-03T02:15:38.210Z,101974.94
2023-02-03T02:16:11.252Z,101971.38
2023-02-03T02:16:42.436Z,101984.56
2023-02-03T02:17:12.091Z,101975.72
2023-02-03T02:17:55.174Z,101981.81
2023-02-03T02:18:28.728Z,101981.75
2023-02-03T02:19:21.461Z,101993.22
2023-02-03T02:20:25.185Z,101989.69
2023-02-03T02:21:12.537Z,101995.88
2023-02-03T02:21:47.844Z,101988.88
2023-02-03T02:22:14.646Z,101996.81
2023-02-03T02:22:56.497Z,101967.84
2023-02-03T02:23:41.844Z,102000.44
2023-02-03T02:24:38.962Z,102004.84
2023-02-03T02:25:29.077Z,101969.69
2023-02-03T02:26:13.450Z,101992.56
2023-02-03T02:26:49.321Z,102009.25
2023-02-03T02:27:26.533Z,102003.22
2023-02-03T02:28:12.946Z,101953.09
2023-02-03T02:28:59.942Z,101963.56
2023-02-03T02:29:45.916Z,101990.97
2023-02-03T02:30:30.823Z,101987.78
2023-02-03T02:31:18.222Z,101992.31
2023-02-03T02:31:59.418Z,101988.69
2023-02-03T02:32:33.796Z,101985.94
2023-02-03T02:33:02.837Z,101996.56
2023-02-03T02:33:38.430Z,101983.19
2023-02-03T02:34:08.984Z,101976.88
2023-02-03T02:34:44.356Z,101985.03
2023-02-03T02:35:17.072Z,101961.28
2023-02-03T02:35:47.953Z,101968.97
2023-02-03T02:36:24.296Z,101965.63
2023-02-03T02:36:58.532Z,101977.91
2023-02-03T02:37:30.505Z,101980.50
2023-02-03T02:37:59.753Z,101970.75
2023-02-03T02:38:35.874Z,101944.31
2023-02-03T02:39:05.918Z,101938.00
2023-02-03T02:39:37.786Z,101980.22
2023-02-03T02:40:09.886Z,101954.66
2023-02-03T02:40:36.103Z,101973.06
2023-02-03T02:41:05.567Z,101971.38
2023-02-03T02:41:31.717Z,101960.06
2023-02-03T02:41:59.306Z,101969.78
2023-02-03T02:42:30.023Z,101966.47
2023-02-03T02:43:02.038Z,101923.78
2023-02-03T02:43:34.614Z,101960.72
2023-02-03T02:44:01.423Z,101937.75
2023-02-03T02:44:26.914Z,101951.59
2023-02-03T02:44:52.298Z,101949.00
2023-02-03T02:45:20.463Z,101966.75
2023-02-03T02:45:48.187Z,101964.88
2023-02-03T02:46:14.690Z,101949.88
2023-02-03T02:46:42.764Z,101949.06
2023-02-03T02:47:11.110Z,101949.09
2023-02-03T02:47:34.197Z,101950.16
2023-02-03T02:48:03.481Z,101911.53
2023-02-03T02:48:33.628Z,101953.59
2023-02-03T02:48:59.008Z,101952.81
2023-02-03T02:49:25.660Z,101952.72
2023-02-03T02:49:54.552Z,101953.59
2023-02-03T02:50:24.441Z,101917.50
2023-02-03T02:50:50.257Z,101904.28
2023-02-03T02:51:15.486Z,101934.75
2023-02-03T02:51:39.796Z,101917.22
2023-02-03T02:52:06.050Z,101902.16
2023-02-03T02:52:31.571Z,101946.16
2023-02-03T02:52:54.306Z,101952.28
2023-02-03T02:53:19.299Z,101936.34
2023-02-03T02:53:47.669Z,101907.41
2023-02-03T02:54:15.770Z,101950.56
2023-02-03T02:54:41.490Z,101938.25
2023-02-03T02:55:08.371Z,101933.84
2023-02-03T02:55:35.008Z,101910.94
2023-02-03T02:56:03.294Z,101940.91
2023-02-03T02:56:26.891Z,101933.72
2023-02-03T02:56:55.304Z,101912.63
2023-02-03T02:57:20.419Z,101906.41
2023-02-03T02:57:45.268Z,101923.25
2023-02-03T02:58:10.010Z,101935.59
2023-02-03T02:58:34.210Z,101936.38
2023-02-03T02:59:00.220Z,101937.22
2023-02-03T02:59:22.017Z,101948.81
2023-02-03T02:59:44.970Z,101894.28
2023-02-03T03:00:09.264Z,101949.97
2023-02-03T03:00:31.748Z,101915.69
2023-02-03T03:00:53.454Z,101943.69
2023-02-03T03:01:16.198Z,101965.94
2023-02-03T03:01:37.973Z,101954.56
2023-02-03T03:02:00.944Z,101965.13
2023-02-03T03:02:32.363Z,101921.97
2023-02-03T03:02:54.436Z,101958.75
2023-02-03T03:03:19.557Z,101955.13
2023-02-03T03:03:45.029Z,101965.69
2023-02-03T03:04:09.072Z,101911.28
2023-02-03T03:04:35.201Z,101915.63
2023-02-03T03:04:57.386Z,101925.22
2023-02-03T03:05:20.743Z,101951.44
2023-02-03T03:05:50.943Z,101953.16
2023-02-03T03:06:19.856Z,101964.66
2023-02-03T03:06:46.099Z,101963.75
2023-02-03T03:07:12.632Z,101944.31
2023-02-03T03:07:41.103Z,101958.41
2023-02-03T03:08:03.209Z,101961.06
2023-02-03T03:08:31.721Z,101950.50
2023-02-03T03:08:59.034Z,101927.72
2023-02-03T03:09:24.574Z,101953.97
2023-02-03T03:09:51.484Z,101956.63
2023-02-03T03:10:19.134Z,101954.88
2023-02-03T03:10:43.798Z,101951.41
2023-02-03T03:11:05.729Z,101959.31
2023-02-03T03:11:31.814Z,101953.97
2023-02-03T03:12:00.738Z,101947.84
2023-02-03T03:12:29.536Z,101955.66
2023-02-03T03:12:56.194Z,101916.28
2023-02-03T03:13:23.510Z,101939.03
2023-02-03T03:13:50.637Z,101928.59
2023-02-03T03:14:16.145Z,101958.44
2023-02-03T03:14:41.404Z,101958.56
2023-02-03T03:15:09.423Z,101960.00
2023-02-03T03:15:37.072Z,101971.53
2023-02-03T03:16:02.457Z,101974.03
2023-02-03T03:16:27.508Z,101965.06
2023-02-03T03:16:54.189Z,101959.66
2023-02-03T03:17:21.821Z,101964.97
2023-02-03T03:17:50.819Z,101966.75
2023-02-03T03:18:15.970Z,101962.22
2023-02-03T03:18:44.422Z,101955.03
2023-02-03T03:19:11.126Z,101964.06
2023-02-03T03:19:37.998Z,101960.69
2023-02-03T03:20:04.166Z,101909.69
2023-02-03T03:20:28.745Z,101948.34
2023-02-03T03:20:54.036Z,101949.16
2023-02-03T03:21:22.644Z,101951.81
2023-02-03T03:21:49.192Z,101928.03
2023-02-03T03:22:13.497Z,101948.19
2023-02-03T03:22:41.705Z,101935.69
2023-02-03T03:23:07.137Z,101934.75
2023-02-03T03:23:33.620Z,101937.38
2023-02-03T03:23:59.668Z,101936.47
2023-02-03T03:24:27.280Z,101939.94
2023-02-03T03:24:54.085Z,101931.09
2023-02-03T03:25:18.004Z,101939.94
2023-02-03T03:25:44.206Z,101936.38
2023-02-03T03:26:12.584Z,101934.47
2023-02-03T03:26:40.955Z,101902.06
2023-02-03T03:27:08.903Z,101906.41
2023-02-03T03:27:35.977Z,101901.97
2023-02-03T03:28:02.248Z,101935.31
2023-02-03T03:28:29.585Z,101932.59
2023-02-03T03:28:55.627Z,101945.91
2023-02-03T03:29:22.340Z,101932.66
2023-02-03T03:29:49.476Z,101938.78
2023-02-03T03:30:16.827Z,101936.13
2023-02-03T03:30:39.643Z,101935.19
2023-02-03T03:31:01.383Z,101893.03
2023-02-03T03:31:24.730Z,101934.38
2023-02-03T03:31:48.312Z,101930.13
2023-02-03T03:32:10.883Z,101938.19
2023-02-03T03:32:33.291Z,101932.00
2023-02-03T03:32:58.458Z,101926.81
2023-02-03T03:33:21.926Z,101921.66
2023-02-03T03:33:44.402Z,101948.84
2023-02-03T03:34:06.624Z,101943.50
2023-02-03T03:34:29.797Z,101933.03
2023-02-03T03:34:52.410Z,101943.66
2023-02-03T03:35:16.323Z,101902.22
2023-02-03T03:35:45.693Z,101939.88
2023-02-03T03:36:16.281Z,101945.09
2023-02-03T03:36:44.634Z,101923.09
2023-02-03T03:37:13.847Z,101944.19
2023-02-03T03:37:38.384Z,101903.78
2023-02-03T03:38:06.438Z,101947.75
2023-02-03T03:38:33.764Z,101943.34
2023-02-03T03:39:03.002Z,101944.13
2023-02-03T03:39:33.557Z,101948.53
2023-02-03T03:39:57.866Z,101939.78
2023-02-03T03:40:25.586Z,101944.31
2023-02-03T03:40:53.184Z,101915.44
2023-02-03T03:41:20.124Z,101941.81
2023-02-03T03:41:51.608Z,101932.97
2023-02-03T03:42:19.353Z,101909.19
2023-02-03T03:42:47.010Z,101942.53
2023-02-03T03:43:16.862Z,101946.25
2023-02-03T03:43:43.438Z,101946.31
2023-02-03T03:44:10.940Z,101938.28
2023-02-03T03:44:38.619Z,101939.09
2023-02-03T03:45:07.419Z,101941.81
2023-02-03T03:45:35.735Z,101943.50
2023-02-03T03:46:04.027Z,101945.19
2023-02-03T03:46:28.777Z,101949.56
2023-02-03T03:47:03.980Z,101947.75
2023-02-03T03:47:32.800Z,101943.25
2023-02-03T03:48:00.997Z,101909.88
2023-02-03T03:48:29.802Z,101949.38
2023-02-03T03:48:54.640Z,101945.03
2023-02-03T03:49:19.325Z,101948.47
2023-02-03T03:49:44.108Z,101934.56
2023-02-03T03:50:12.016Z,101943.31
2023-02-03T03:50:37.077Z,101921.25
2023-02-03T03:51:04.477Z,101935.25
2023-02-03T03:51:31.151Z,101937.81
2023-02-03T03:52:00.417Z,101945.81
2023-02-03T03:52:29.032Z,101938.78
2023-02-03T03:52:52.733Z,101913.59
2023-02-03T03:53:17.257Z,101947.91
2023-02-03T03:53:43.413Z,101943.34
2023-02-03T03:54:08.762Z,101943.34
2023-02-03T03:54:32.659Z,101951.13
2023-02-03T03:54:56.281Z,101944.22
2023-02-03T03:55:21.949Z,101945.09
2023-02-03T03:55:48.656Z,101943.16
2023-02-03T03:56:17.276Z,101940.41
2023-02-03T03:56:41.823Z,101943.00
2023-02-03T03:57:10.664Z,101912.47
2023-02-03T03:57:37.503Z,101938.00
2023-02-03T03:58:03.665Z,101947.59
2023-02-03T03:58:29.040Z,101903.59
2023-02-03T03:58:54.833Z,101945.72
2023-02-03T03:59:20.834Z,101943.06
2023-02-03T03:59:48.386Z,101947.41
2023-02-03T04:00:15.779Z,101945.53
2023-02-03T04:00:39.973Z,101943.75
2023-02-03T04:01:06.187Z,101943.88
2023-02-03T04:01:30.680Z,101940.41
2023-02-03T04:01:53.098Z,101935.13
2023-02-03T04:02:17.067Z,101943.97
2023-02-03T04:02:40.957Z,101941.38
2023-02-03T04:03:09.619Z,101893.09
2023-02-03T04:03:38.177Z,101936.13
2023-02-03T04:04:04.877Z,101944.03
2023-02-03T04:04:27.636Z,101942.28
2023-02-03T04:04:51.705Z,101936.03
2023-02-03T04:05:14.611Z,101941.38
2023-02-03T04:05:38.612Z,101937.13
2023-02-03T04:06:00.464Z,101934.47
2023-02-03T04:06:22.127Z,101941.53
2023-02-03T04:06:45.036Z,101941.47
2023-02-03T04:07:06.848Z,101947.66
2023-02-03T04:07:38.798Z,101944.03
2023-02-03T04:08:01.002Z,101949.34
2023-02-03T04:08:23.991Z,101952.03
2023-02-03T04:08:45.756Z,101946.69
2023-02-03T04:09:07.677Z,101923.03
2023-02-03T04:09:29.421Z,101961.88
2023-02-03T04:09:52.222Z,101958.50
2023-02-03T04:10:21.004Z,101942.63
2023-02-03T04:10:44.198Z,101915.38
2023-02-03T04:11:06.400Z,101906.53
2023-02-03T04:11:46.785Z,101947.84
2023-02-03T04:12:17.902Z,101950.50
2023-02-03T04:12:39.832Z,101940.75
2023-02-03T04:13:02.211Z,101932.84
2023-02-03T04:13:24.017Z,101899.50
2023-02-03T04:13:45.741Z,101942.59
2023-02-03T04:14:07.407Z,101932.88
2023-02-03T04:14:31.560Z,101953.09
2023-02-03T04:14:53.529Z,101947.75
2023-02-03T04:15:15.469Z,101936.16
2023-02-03T04:15:37.874Z,101937.09
2023-02-03T04:16:00.963Z,101937.28
2023-02-03T04:16:22.963Z,101938.34
2023-02-03T04:16:44.657Z,101935.72
2023-02-03T04:17:06.529Z,101915.53
2023-02-03T04:17:29.404Z,101931.25
2023-02-03T04:17:51.100Z,101933.00
2023-02-03T04:18:16.381Z,101914.47
2023-02-03T04:18:38.160Z,101929.41
2023-02-03T04:18:59.890Z,101938.34
2023-02-03T04:19:24.603Z,101930.38
2023-02-03T04:19:47.078Z,101925.84
2023-02-03T04:20:10.038Z,101935.63
2023-02-03T04:20:33.436Z,101888.88
2023-02-03T04:20:56.841Z,101927.72
2023-02-03T04:21:18.440Z,101919.75
2023-02-03T04:21:40.249Z,101916.19
2023-02-03T04:22:02.359Z,101918.94
2023-02-03T04:22:24.257Z,101912.78
2023-02-03T04:22:47.913Z,101906.63
2023-02-03T04:23:10.451Z,101915.41
2023-02-03T04:23:32.204Z,101913.78
2023-02-03T04:23:54.029Z,101917.56
2023-02-03T04:24:17.111Z,101912.13
2023-02-03T04:24:38.884Z,101901.53
2023-02-03T04:25:00.619Z,101917.25
2023-02-03T04:25:22.786Z,101896.16
2023-02-03T04:25:45.401Z,101913.63
2023-02-03T04:26:07.093Z,101923.19
2023-02-03T04:26:28.799Z,101928.53
2023-02-03T04:26:50.716Z,101933.94
2023-02-03T04:27:12.416Z,101932.47
2023-02-03T04:27:35.478Z,101926.22
2023-02-03T04:27:57.436Z,101913.84
2023-02-03T04:28:19.202Z,101927.78
2023-02-03T04:28:41.114Z,101933.94
2023-02-03T04:29:03.048Z,101934.06
2023-02-03T04:29:27.695Z,101935.06
2023-02-03T04:29:50.878Z,101945.63
2023-02-03T04:30:13.793Z,101937.00
2023-02-03T04:30:35.757Z,101928.13
2023-02-03T04:31:01.896Z,101937.66
2023-02-03T04:31:23.881Z,101901.53
2023-02-03T04:31:45.685Z,101942.25
2023-02-03T04:32:07.495Z,101936.84
2023-02-03T04:32:30.931Z,101943.94
2023-02-03T04:32:53.208Z,101930.72
2023-02-03T04:33:16.448Z,101949.16
2023-02-03T04:33:38.249Z,101943.69
2023-02-03T04:33:59.991Z,101946.25
2023-02-03T04:34:22.945Z,101951.50
2023-02-03T04:34:44.645Z,101944.38
2023-02-03T04:35:09.095Z,101939.13
2023-02-03T04:35:30.716Z,101934.66
2023-02-03T04:35:53.043Z,101940.84
2023-02-03T04:36:16.243Z,101939.88
2023-02-03T04:36:38.087Z,101934.47
2023-02-03T04:36:59.892Z,101936.22
2023-02-03T04:37:23.088Z,101935.34
2023-02-03T04:37:44.856Z,101909.78
2023-02-03T04:38:06.533Z,101930.00
2023-02-03T04:38:28.513Z,101932.56
2023-02-03T04:38:53.942Z,101932.53
2023-02-03T04:39:16.018Z,101895.59
2023-02-03T04:39:37.887Z,101931.59
2023-02-03T04:39:59.713Z,101933.44
2023-02-03T04:40:22.632Z,101937.75
2023-02-03T04:40:45.576Z,101936.81
2023-02-03T04:41:07.455Z,101937.81
2023-02-03T04:41:29.182Z,101895.69
2023-02-03T04:41:51.873Z,101939.75
2023-02-03T04:42:13.570Z,101923.09
2023-02-03T04:42:36.971Z,101928.25
2023-02-03T04:42:59.186Z,101926.47
2023-02-03T04:43:21.833Z,101930.84
2023-02-03T04:43:44.155Z,101908.03
2023-02-03T04:44:05.784Z,101936.16
2023-02-03T04:44:27.614Z,101931.69